createdAt,value
2023-03-19T00:00:02.090Z,74.84
2023-03-19T00:01:02.124Z,74.94
2023-03-19T00:02:15.507Z,75.14
2023-03-19T00:03:02.224Z,74.94
2023-03-19T00:04:02.505Z,75.04
2023-03-19T00:05:02.049Z,75.04
2023-03-19T00:06:02.069Z,75.37
2023-03-19T00:07:02.064Z,75.48
2023-03-19T00:08:02.128Z,75.67
2023-03-19T00:09:01.980Z,75.57
2023-03-19T00:10:02.450Z,75.48
2023-03-19T00:11:02.041Z,75.48
2023-03-19T00:12:01.998Z,75.48
2023-03-19T00:13:01.903Z,75.48
2023-03-19T00:14:02.072Z,75.48
2023-03-19T00:15:01.965Z,75.18
2023-03-19T00:16:02.435Z,75.18
2023-03-19T00:17:02.105Z,75.27
2023-03-19T00:18:01.943Z,75.48
2023-03-19T00:19:01.892Z,75.27
2023-03-19T00:20:01.912Z,75.18
2023-03-19T00:21:01.879Z,75.27
2023-03-19T00:22:02.104Z,74.88
2023-03-19T00:23:01.868Z,74.98
2023-03-19T00:24:01.921Z,74.88
2023-03-19T00:25:01.832Z,74.58
2023-03-19T00:26:01.939Z,74.58
2023-03-19T00:27:01.950Z,74.48
2023-03-19T00:28:01.877Z,74.58
2023-03-19T00:29:01.845Z,74.77
2023-03-19T00:30:01.996Z,74.77
2023-03-19T00:31:01.786Z,74.98
2023-03-19T00:32:01.768Z,74.77
2023-03-19T00:33:01.782Z,74.28
2023-03-19T00:34:01.885Z,74.38
2023-03-19T00:35:01.797Z,74.58
2023-03-19T00:36:01.798Z,74.58
2023-03-19T00:37:01.697Z,74.44
2023-03-19T00:38:01.705Z,73.85
2023-03-19T00:39:01.710Z,73.94
2023-03-19T00:40:01.702Z,73.94
2023-03-19T00:41:01.838Z,73.98
2023-03-19T00:42:01.676Z,74.18
2023-03-19T00:43:01.757Z,74.08
2023-03-19T00:44:01.668Z,74.28
2023-03-19T00:45:01.646Z,74.38
2023-03-19T00:46:01.704Z,74.38
2023-03-19T00:47:01.677Z,74.58
2023-03-19T00:48:01.678Z,74.77
2023-03-19T00:49:01.574Z,75.07
2023-03-19T00:50:01.578Z,75.07
2023-03-19T00:51:01.604Z,75.07
2023-03-19T00:52:01.612Z,75.07
2023-03-19T00:53:01.598Z,75.18
2023-03-19T00:54:01.609Z,75.37
2023-03-19T00:55:01.525Z,75.18
2023-03-19T00:56:01.526Z,74.88
2023-03-19T00:57:01.467Z,74.98
2023-03-19T00:58:01.540Z,75.07
2023-03-19T00:59:01.561Z,74.77
2023-03-19T01:00:01.491Z,74.77
2023-03-19T01:01:01.507Z,74.77
2023-03-19T01:02:01.399Z,74.77
2023-03-19T01:03:01.409Z,75.07
2023-03-19T01:04:01.650Z,74.88
2023-03-19T01:05:01.395Z,74.77
2023-03-19T01:06:01.487Z,74.98
2023-03-19T01:07:06.198Z,74.68
2023-03-19T01:08:01.403Z,74.28
2023-03-19T01:09:01.362Z,73.88
2023-03-19T01:10:01.452Z,73.91
2023-03-19T01:11:01.333Z,74.02
2023-03-19T01:12:01.363Z,74.11
2023-03-19T01:13:01.268Z,74.11
2023-03-19T01:14:01.320Z,74.32
2023-03-19T01:15:01.330Z,74.41
2023-03-19T01:16:01.281Z,74.32
2023-03-19T01:17:01.405Z,74.41
2023-03-19T01:18:01.369Z,74.21
2023-03-19T01:19:01.265Z,74.32
2023-03-19T01:20:01.278Z,74.21
2023-03-19T01:21:01.230Z,74.08
2023-03-19T01:22:01.344Z,73.91
2023-03-19T01:23:01.190Z,74.21
2023-03-19T01:24:01.208Z,74.32
2023-03-19T01:25:01.215Z,74.55
2023-03-19T01:26:01.523Z,74.85
2023-03-19T01:27:01.205Z,74.85
2023-03-19T01:28:01.942Z,74.95
2023-03-19T01:29:01.132Z,75.05
2023-03-19T01:30:01.074Z,74.85
2023-03-19T01:31:01.211Z,74.91
2023-03-19T01:32:01.156Z,74.81
2023-03-19T01:33:01.191Z,74.81
2023-03-19T01:34:01.068Z,74.51
2023-03-19T01:35:01.052Z,74.71
2023-03-19T01:36:01.111Z,74.62
2023-03-19T01:37:01.074Z,74.51
2023-03-19T01:38:01.108Z,74.71
2023-03-19T01:39:01.102Z,74.71
2023-03-19T01:40:01.019Z,74.81
2023-03-19T01:41:01.003Z,74.62
2023-03-19T01:42:01.016Z,74.51
2023-03-19T01:43:01.003Z,74.81
2023-03-19T01:44:01.027Z,74.81
2023-03-19T01:45:01.055Z,74.21
2023-03-19T01:46:00.967Z,74.51
2023-03-19T01:47:00.962Z,74.51
2023-03-19T01:48:00.961Z,74.62
2023-03-19T01:49:00.955Z,74.51
2023-03-19T01:50:00.967Z,74.62
2023-03-19T01:51:00.970Z,74.51
2023-03-19T01:52:00.883Z,74.65
2023-03-19T01:53:00.874Z,74.71
2023-03-19T01:54:00.897Z,74.71
2023-03-19T01:55:00.889Z,74.62
2023-03-19T01:56:01.010Z,74.62
2023-03-19T01:57:00.925Z,74.71
2023-03-19T01:58:00.814Z,74.62
2023-03-19T01:59:00.819Z,74.62
2023-03-19T02:00:00.826Z,74.51
2023-03-19T02:01:00.829Z,74.41
2023-03-19T02:02:00.985Z,74.21
2023-03-19T02:03:00.860Z,74.11
2023-03-19T02:04:00.788Z,74.02
2023-03-19T02:05:01.677Z,73.91
2023-03-19T02:06:00.877Z,74.11
2023-03-19T02:07:00.751Z,74.02
2023-03-19T02:08:00.776Z,73.82
2023-03-19T02:09:00.779Z,73.61
2023-03-19T02:10:00.769Z,73.82
2023-03-19T02:11:00.684Z,73.91
2023-03-19T02:12:00.697Z,74.02
2023-03-19T02:13:00.676Z,73.82
2023-03-19T02:14:00.816Z,74.02
2023-03-19T02:15:00.737Z,73.32
2023-03-19T02:16:00.665Z,73.11
2023-03-19T02:17:00.654Z,73.61
2023-03-19T02:18:00.638Z,73.52
2023-03-19T02:19:00.754Z,73.42
2023-03-19T02:20:00.669Z,73.61
2023-03-19T02:21:00.649Z,73.72
2023-03-19T02:22:00.552Z,73.22
2023-03-19T02:23:00.571Z,73.02
2023-03-19T02:24:00.693Z,73.11
2023-03-19T02:25:00.577Z,73.22
2023-03-19T02:26:00.585Z,73.65
2023-03-19T02:27:00.524Z,73.55
2023-03-19T02:28:00.502Z,73.75
2023-03-19T02:29:00.513Z,73.65
2023-03-19T02:30:03.062Z,73.85
2023-03-19T02:31:00.571Z,74.15
2023-03-19T02:32:00.517Z,74.45
2023-03-19T02:33:00.581Z,74.45
2023-03-19T02:34:00.448Z,74.55
2023-03-19T02:35:00.433Z,74.65
2023-03-19T02:36:00.630Z,74.75
2023-03-19T02:37:00.445Z,74.75
2023-03-19T02:38:00.467Z,74.75
2023-03-19T02:39:00.467Z,74.75
2023-03-19T02:40:00.394Z,74.75
2023-03-19T02:41:00.376Z,74.41
2023-03-19T02:42:00.363Z,74.32
2023-03-19T02:43:00.401Z,74.32
2023-03-19T02:44:00.342Z,74.21
2023-03-19T02:45:00.375Z,74.11
2023-03-19T02:46:00.284Z,74.02
2023-03-19T02:47:00.357Z,74.11
2023-03-19T02:48:00.303Z,73.72
2023-03-19T02:49:00.331Z,74.25
2023-03-19T02:50:00.358Z,74.45
2023-03-19T02:51:00.256Z,74.45
2023-03-19T02:52:00.273Z,74.35
2023-03-19T02:53:00.199Z,74.15
2023-03-19T02:54:00.268Z,74.45
2023-03-19T02:55:00.587Z,74.45
2023-03-19T02:56:00.278Z,74.55
2023-03-19T02:57:00.331Z,74.35
2023-03-19T02:58:00.188Z,74.15
2023-03-19T02:59:00.199Z,73.55
2023-03-19T03:00:00.231Z,73.39
2023-03-19T03:01:00.233Z,73.88
2023-03-19T03:02:00.335Z,73.88
2023-03-19T03:03:00.097Z,74.08
2023-03-19T03:04:00.142Z,73.99
2023-03-19T03:05:00.153Z,73.85
2023-03-19T03:06:00.119Z,73.75
2023-03-19T03:07:00.116Z,73.85
2023-03-19T03:08:00.064Z,73.75
2023-03-19T03:09:00.043Z,73.65
2023-03-19T03:10:00.040Z,73.65
2023-03-19T03:10:59.993Z,73.65
2023-03-19T03:12:00.063Z,73.95
2023-03-19T03:12:59.970Z,73.95
2023-03-19T03:13:59.976Z,73.95
2023-03-19T03:14:59.972Z,73.85
2023-03-19T03:16:00.090Z,74.05
2023-03-19T03:17:00.080Z,74.15
2023-03-19T03:18:00.032Z,74.25
2023-03-19T03:19:00.039Z,74.15
2023-03-19T03:19:59.915Z,74.15
2023-03-19T03:20:59.916Z,74.25
2023-03-19T03:21:59.917Z,74.35
2023-03-19T03:22:59.922Z,74.15
2023-03-19T03:23:59.965Z,74.25
2023-03-19T03:24:59.878Z,74.35
2023-03-19T03:25:59.954Z,74.35
2023-03-19T03:26:59.912Z,74.25
2023-03-19T03:28:00.530Z,74.38
2023-03-19T03:29:00.010Z,74.68
2023-03-19T03:29:59.909Z,74.79
2023-03-19T03:30:59.781Z,74.88
2023-03-19T03:31:59.857Z,74.88
2023-03-19T03:32:59.866Z,74.58
2023-03-19T03:33:59.885Z,74.68
2023-03-19T03:34:59.769Z,74.79
2023-03-19T03:35:59.773Z,74.68
2023-03-19T03:36:59.781Z,74.68
2023-03-19T03:37:59.818Z,74.49
2023-03-19T03:38:59.739Z,74.29
2023-03-19T03:39:59.633Z,74.49
2023-03-19T03:40:59.641Z,74.38
2023-03-19T03:41:59.668Z,74.08
2023-03-19T03:42:59.614Z,73.79
2023-03-19T03:43:59.728Z,73.99
2023-03-19T03:44:59.569Z,73.88
2023-03-19T03:45:59.725Z,74.08
2023-03-19T03:46:59.677Z,74.29
2023-03-19T03:47:59.674Z,74.19
2023-03-19T03:48:59.592Z,74.08
2023-03-19T03:49:59.603Z,73.99
2023-03-19T03:50:59.559Z,73.88
2023-03-19T03:51:59.563Z,73.88
2023-03-19T03:52:59.566Z,73.79
2023-03-19T03:53:59.542Z,73.99
2023-03-19T03:54:59.482Z,74.19
2023-03-19T03:55:59.501Z,74.29
2023-03-19T03:57:02.082Z,74.49
2023-03-19T03:57:59.502Z,73.99
2023-03-19T03:58:59.557Z,73.88
2023-03-19T03:59:59.432Z,74.29
2023-03-19T04:00:59.435Z,74.38
2023-03-19T04:01:59.570Z,74.38
2023-03-19T04:02:59.399Z,74.29
2023-03-19T04:03:59.445Z,74.38
2023-03-19T04:04:59.389Z,74.19
2023-03-19T04:05:59.582Z,74.19
2023-03-19T04:06:59.358Z,74.29
2023-03-19T04:07:59.393Z,74.08
2023-03-19T04:08:59.330Z,74.29
2023-03-19T04:09:59.328Z,74.19
2023-03-19T04:10:59.342Z,74.19
2023-03-19T04:11:59.351Z,74.19
2023-03-19T04:12:59.300Z,74.08
2023-03-19T04:13:59.316Z,74.29
2023-03-19T04:14:59.252Z,74.08
2023-03-19T04:15:59.291Z,74.08
2023-03-19T04:16:59.338Z,74.08
2023-03-19T04:17:59.294Z,74.19
2023-03-19T04:18:59.240Z,74.08
2023-03-19T04:19:59.308Z,73.79
2023-03-19T04:20:59.287Z,74.12
2023-03-19T04:21:59.266Z,74.42
2023-03-19T04:22:59.205Z,74.82
2023-03-19T04:23:59.289Z,74.72
2023-03-19T04:24:59.224Z,74.72
2023-03-19T04:25:59.296Z,74.62
2023-03-19T04:26:59.201Z,74.72
2023-03-19T04:27:59.206Z,74.72
2023-03-19T04:28:59.207Z,74.72
2023-03-19T04:29:59.222Z,74.72
2023-03-19T04:30:59.382Z,74.62
2023-03-19T04:31:59.188Z,74.82
2023-03-19T04:32:59.172Z,74.82
2023-03-19T04:33:59.138Z,74.82
2023-03-19T04:34:59.183Z,74.72
2023-03-19T04:35:59.106Z,74.72
2023-03-19T04:36:59.092Z,74.72
2023-03-19T04:37:59.099Z,74.72
2023-03-19T04:38:59.101Z,74.82
2023-03-19T04:39:59.118Z,74.79
2023-03-19T04:40:58.989Z,74.82
2023-03-19T04:41:59.024Z,74.82
2023-03-19T04:42:59.133Z,74.72
2023-03-19T04:43:59.131Z,74.62
2023-03-19T04:44:58.988Z,74.98
2023-03-19T04:45:59.014Z,74.68
2023-03-19T04:46:59.001Z,74.68
2023-03-19T04:47:58.971Z,74.68
2023-03-19T04:48:59.214Z,74.68
2023-03-19T04:49:59.740Z,74.68
2023-03-19T04:50:59.000Z,74.68
2023-03-19T04:51:59.004Z,74.98
2023-03-19T04:52:58.837Z,74.79
2023-03-19T04:53:59.000Z,74.79
2023-03-19T04:54:58.853Z,74.98
2023-03-19T04:55:58.960Z,75.09
2023-03-19T04:56:58.967Z,75.02
2023-03-19T04:57:58.839Z,74.92
2023-03-19T04:58:58.872Z,75.12
2023-03-19T04:59:58.877Z,75.32
2023-03-19T05:00:58.887Z,75.22
2023-03-19T05:01:58.858Z,75.32
2023-03-19T05:02:58.860Z,75.32
2023-03-19T05:03:58.856Z,75.32
2023-03-19T05:04:58.817Z,75.42
2023-03-19T05:05:59.124Z,75.42
2023-03-19T05:06:58.798Z,75.42
2023-03-19T05:07:58.893Z,75.32
2023-03-19T05:08:58.703Z,75.42
2023-03-19T05:09:58.821Z,75.62
2023-03-19T05:10:58.766Z,75.82
2023-03-19T05:11:58.667Z,75.82
2023-03-19T05:12:58.730Z,75.82
2023-03-19T05:13:58.674Z,75.62
2023-03-19T05:14:58.668Z,75.82
2023-03-19T05:15:58.717Z,75.82
2023-03-19T05:16:58.655Z,75.82
2023-03-19T05:17:58.663Z,76.12
2023-03-19T05:18:58.672Z,76.35
2023-03-19T05:19:58.708Z,76.32
2023-03-19T05:20:58.607Z,76.22
2023-03-19T05:21:58.587Z,76.32
2023-03-19T05:22:58.591Z,76.32
2023-03-19T05:23:58.624Z,76.32
2023-03-19T05:24:58.645Z,76.22
2023-03-19T05:25:58.642Z,76.22
2023-03-19T05:26:58.656Z,76.12
2023-03-19T05:27:58.517Z,76.02
2023-03-19T05:28:58.531Z,76.02
2023-03-19T05:29:58.536Z,76.12
2023-03-19T05:30:58.646Z,76.02
2023-03-19T05:31:58.652Z,76.02
2023-03-19T05:32:58.564Z,76.12
2023-03-19T05:33:58.590Z,76.12
2023-03-19T05:34:58.506Z,76.22
2023-03-19T05:35:58.606Z,76.42
2023-03-19T05:36:58.483Z,76.52
2023-03-19T05:37:58.535Z,76.52
2023-03-19T05:38:58.392Z,76.42
2023-03-19T05:39:58.518Z,76.52
2023-03-19T05:40:58.435Z,76.62
2023-03-19T05:41:58.443Z,76.82
2023-03-19T05:42:58.440Z,76.86
2023-03-19T05:43:58.367Z,76.95
2023-03-19T05:44:58.356Z,76.95
2023-03-19T05:45:58.367Z,76.95
2023-03-19T05:46:58.368Z,76.95
2023-03-19T05:47:58.478Z,76.82
2023-03-19T05:48:58.481Z,76.82
2023-03-19T05:49:58.404Z,76.72
2023-03-19T05:50:58.284Z,76.72
2023-03-19T05:51:58.290Z,76.95
2023-03-19T05:52:58.303Z,77.06
2023-03-19T05:53:59.130Z,77.15
2023-03-19T05:54:58.219Z,77.15
2023-03-19T05:55:58.320Z,77.45
2023-03-19T05:56:58.225Z,77.25
2023-03-19T05:57:59.053Z,77.06
2023-03-19T05:58:58.341Z,77.25
2023-03-19T05:59:58.258Z,77.36
2023-03-19T06:00:58.177Z,77.36
2023-03-19T06:01:58.263Z,77.25
2023-03-19T06:02:58.227Z,77.45
2023-03-19T06:03:58.219Z,77.56
2023-03-19T06:04:58.171Z,77.45
2023-03-19T06:05:58.184Z,77.25
2023-03-19T06:06:58.188Z,77.25
2023-03-19T06:07:58.186Z,77.36
2023-03-19T06:08:58.130Z,77.25
2023-03-19T06:09:58.099Z,77.36
2023-03-19T06:10:58.112Z,77.36
2023-03-19T06:11:58.119Z,77.25
2023-03-19T06:12:58.023Z,77.36
2023-03-19T06:13:58.135Z,77.25
2023-03-19T06:14:58.042Z,77.15
2023-03-19T06:15:58.048Z,77.15
2023-03-19T06:16:58.053Z,77.06
2023-03-19T06:17:58.051Z,77.15
2023-03-19T06:18:57.958Z,77.15
2023-03-19T06:19:58.062Z,77.15
2023-03-19T06:20:57.978Z,77.06
2023-03-19T06:21:57.983Z,77.06
2023-03-19T06:22:57.992Z,77.25
2023-03-19T06:23:58.112Z,77.36
2023-03-19T06:24:57.894Z,77.56
2023-03-19T06:25:58.107Z,77.86
2023-03-19T06:26:57.918Z,77.75
2023-03-19T06:27:57.868Z,77.75
2023-03-19T06:28:58.039Z,77.66
2023-03-19T06:29:57.831Z,77.56
2023-03-19T06:30:57.839Z,77.45
2023-03-19T06:31:58.356Z,77.45
2023-03-19T06:32:57.893Z,77.25
2023-03-19T06:33:57.968Z,77.36
2023-03-19T06:34:58.988Z,77.45
2023-03-19T06:35:57.903Z,77.36
2023-03-19T06:36:57.773Z,77.36
2023-03-19T06:37:57.879Z,77.56
2023-03-19T06:38:57.789Z,77.66
2023-03-19T06:39:57.795Z,77.56
2023-03-19T06:40:57.788Z,77.56
2023-03-19T06:41:57.769Z,77.56
2023-03-19T06:42:57.665Z,77.66
2023-03-19T06:43:58.124Z,77.66
2023-03-19T06:44:57.733Z,77.66
2023-03-19T06:45:57.818Z,77.66
2023-03-19T06:46:57.699Z,77.86
2023-03-19T06:47:57.633Z,77.79
2023-03-19T06:48:57.708Z,77.79
2023-03-19T06:49:57.662Z,77.89
2023-03-19T06:50:57.605Z,78.09
2023-03-19T06:51:57.716Z,78.19
2023-03-19T06:52:57.622Z,78.39
2023-03-19T06:53:57.526Z,78.39
2023-03-19T06:54:57.561Z,78.29
2023-03-19T06:55:57.665Z,78.29
2023-03-19T06:56:57.565Z,78.09
2023-03-19T06:57:57.588Z,78.05
2023-03-19T06:58:57.586Z,78.05
2023-03-19T06:59:57.462Z,77.86
2023-03-19T07:00:57.580Z,77.75
2023-03-19T07:01:57.528Z,77.86
2023-03-19T07:02:57.480Z,77.86
2023-03-19T07:03:57.598Z,77.75
2023-03-19T07:04:57.475Z,77.75
2023-03-19T07:05:57.467Z,77.66
2023-03-19T07:06:57.460Z,77.86
2023-03-19T07:07:57.487Z,77.89
2023-03-19T07:08:57.476Z,78.09
2023-03-19T07:09:57.399Z,78.39
2023-03-19T07:10:57.390Z,78.39
2023-03-19T07:11:57.397Z,78.39
2023-03-19T07:12:57.372Z,78.49
2023-03-19T07:13:57.451Z,78.59
2023-03-19T07:14:57.429Z,78.79
2023-03-19T07:15:57.424Z,78.69
2023-03-19T07:16:57.330Z,78.59
2023-03-19T07:17:57.339Z,78.75
2023-03-19T07:18:57.313Z,78.66
2023-03-19T07:19:57.364Z,78.85
2023-03-19T07:20:57.357Z,78.75
2023-03-19T07:21:57.385Z,78.85
2023-03-19T07:22:57.342Z,78.96
2023-03-19T07:23:57.279Z,78.85
2023-03-19T07:24:57.242Z,78.66
2023-03-19T07:25:57.262Z,78.75
2023-03-19T07:26:57.316Z,79.09
2023-03-19T07:27:57.300Z,79.29
2023-03-19T07:28:57.204Z,79.59
2023-03-19T07:29:57.174Z,79.69
2023-03-19T07:30:57.216Z,79.79
2023-03-19T07:31:57.315Z,79.89
2023-03-19T07:32:57.231Z,79.99
2023-03-19T07:33:57.272Z,79.99
2023-03-19T07:34:57.156Z,80.09
2023-03-19T07:35:57.234Z,80.29
2023-03-19T07:36:57.188Z,80.53
2023-03-19T07:37:57.165Z,80.73
2023-03-19T07:38:57.181Z,80.63
2023-03-19T07:39:57.074Z,80.83
2023-03-19T07:41:02.500Z,80.73
2023-03-19T07:41:57.090Z,80.69
2023-03-19T07:42:57.102Z,80.59
2023-03-19T07:43:57.149Z,80.73
2023-03-19T07:44:57.038Z,80.83
2023-03-19T07:45:57.070Z,80.73
2023-03-19T07:46:57.019Z,80.83
2023-03-19T07:47:57.037Z,81.13
2023-03-19T07:48:57.021Z,81.13
2023-03-19T07:49:57.107Z,81.23
2023-03-19T07:50:57.046Z,81.23
2023-03-19T07:51:56.917Z,81.23
2023-03-19T07:52:56.989Z,81.23
2023-03-19T07:53:56.991Z,81.13
2023-03-19T07:54:56.933Z,81.13
2023-03-19T07:55:56.957Z,81.13
2023-03-19T07:56:56.923Z,81.23
2023-03-19T07:57:56.972Z,81.23
2023-03-19T07:58:56.929Z,81.23
2023-03-19T07:59:57.032Z,81.13
2023-03-19T08:00:58.578Z,81.13
2023-03-19T08:01:57.902Z,81.03
2023-03-19T08:02:56.857Z,80.93
2023-03-19T08:03:56.850Z,80.89
2023-03-19T08:04:56.902Z,80.79
2023-03-19T08:05:56.816Z,80.69
2023-03-19T08:06:56.777Z,81.03
2023-03-19T08:07:56.832Z,81.13
2023-03-19T08:08:56.742Z,81.23
2023-03-19T08:09:56.831Z,81.03
2023-03-19T08:10:56.758Z,81.23
2023-03-19T08:11:56.956Z,81.33
2023-03-19T08:12:56.922Z,81.13
2023-03-19T08:13:56.772Z,81.23
2023-03-19T08:14:56.724Z,81.33
2023-03-19T08:15:56.734Z,81.33
2023-03-19T08:16:56.767Z,81.19
2023-03-19T08:17:56.748Z,81.09
2023-03-19T08:18:56.654Z,80.99
2023-03-19T08:19:56.663Z,80.89
2023-03-19T08:20:56.719Z,81.19
2023-03-19T08:21:56.671Z,81.19
2023-03-19T08:22:56.627Z,81.19
2023-03-19T08:23:56.733Z,81.19
2023-03-19T08:24:56.632Z,81.19
2023-03-19T08:25:56.607Z,81.19
2023-03-19T08:26:56.551Z,81.09
2023-03-19T08:27:56.664Z,81.09
2023-03-19T08:28:56.572Z,80.99
2023-03-19T08:29:56.657Z,80.89
2023-03-19T08:30:56.694Z,81.19
2023-03-19T08:31:56.577Z,81.19
2023-03-19T08:32:56.703Z,81.29
2023-03-19T08:33:56.594Z,81.09
2023-03-19T08:34:56.518Z,81.23
2023-03-19T08:35:56.483Z,81.73
2023-03-19T08:36:56.831Z,81.93
2023-03-19T08:37:56.513Z,82.03
2023-03-19T08:38:56.576Z,81.93
2023-03-19T08:39:56.483Z,82.03
2023-03-19T08:40:56.588Z,82.03
2023-03-19T08:41:56.496Z,82.13
2023-03-19T08:42:56.395Z,82.03
2023-03-19T08:43:56.406Z,81.93
2023-03-19T08:44:56.572Z,81.83
2023-03-19T08:45:56.506Z,81.53
2023-03-19T08:46:56.370Z,81.53
2023-03-19T08:47:56.487Z,81.49
2023-03-19T08:48:56.410Z,81.49
2023-03-19T08:49:56.449Z,81.09
2023-03-19T08:50:57.007Z,81.23
2023-03-19T08:51:56.458Z,81.63
2023-03-19T08:52:56.364Z,81.93
2023-03-19T08:53:56.677Z,81.83
2023-03-19T08:54:56.336Z,81.93
2023-03-19T08:55:56.437Z,82.03
2023-03-19T08:56:56.339Z,82.03
2023-03-19T08:57:56.395Z,81.93
2023-03-19T08:58:56.249Z,81.83
2023-03-19T08:59:56.352Z,81.83
2023-03-19T09:00:56.255Z,81.69
2023-03-19T09:01:56.293Z,81.59
2023-03-19T09:02:56.372Z,81.59
2023-03-19T09:03:56.392Z,81.59
2023-03-19T09:04:56.210Z,81.39
2023-03-19T09:05:56.298Z,81.49
2023-03-19T09:06:56.199Z,81.43
2023-03-19T09:07:56.200Z,81.63
2023-03-19T09:08:56.309Z,81.83
2023-03-19T09:09:56.312Z,81.63
2023-03-19T09:10:56.238Z,82.13
2023-03-19T09:11:56.126Z,82.13
2023-03-19T09:12:56.125Z,82.13
2023-03-19T09:13:56.141Z,82.03
2023-03-19T09:14:56.040Z,81.83
2023-03-19T09:15:56.120Z,81.63
2023-03-19T09:16:56.060Z,81.73
2023-03-19T09:17:56.061Z,81.83
2023-03-19T09:18:59.204Z,81.93
2023-03-19T09:19:56.071Z,81.93
2023-03-19T09:20:55.998Z,81.83
2023-03-19T09:21:56.163Z,81.83
2023-03-19T09:22:55.999Z,81.73
2023-03-19T09:23:56.001Z,81.63
2023-03-19T09:24:56.004Z,81.83
2023-03-19T09:25:56.622Z,81.63
2023-03-19T09:26:55.908Z,81.73
2023-03-19T09:27:56.026Z,81.63
2023-03-19T09:28:55.924Z,81.83
2023-03-19T09:29:55.930Z,81.83
2023-03-19T09:30:56.133Z,81.73
2023-03-19T09:31:55.957Z,81.53
2023-03-19T09:32:55.911Z,81.49
2023-03-19T09:33:55.964Z,81.49
2023-03-19T09:34:55.864Z,81.73
2023-03-19T09:35:55.940Z,81.83
2023-03-19T09:36:55.832Z,82.03
2023-03-19T09:37:55.877Z,81.93
2023-03-19T09:38:55.780Z,82.03
2023-03-19T09:39:55.795Z,81.93
2023-03-19T09:40:55.906Z,82.03
2023-03-19T09:41:55.805Z,81.93
2023-03-19T09:42:55.817Z,81.83
2023-03-19T09:43:55.842Z,81.83
2023-03-19T09:44:55.726Z,82.13
2023-03-19T09:45:55.789Z,82.43
2023-03-19T09:46:55.866Z,82.53
2023-03-19T09:47:55.917Z,82.63
2023-03-19T09:48:55.762Z,82.53
2023-03-19T09:49:55.922Z,82.53
2023-03-19T09:50:55.781Z,82.53
2023-03-19T09:51:55.884Z,82.43
2023-03-19T09:52:55.789Z,82.53
2023-03-19T09:53:55.718Z,82.53
2023-03-19T09:54:55.716Z,82.23
2023-03-19T09:55:55.765Z,82.03
2023-03-19T09:56:55.810Z,81.93
2023-03-19T09:57:55.761Z,81.83
2023-03-19T09:58:55.625Z,82.23
2023-03-19T09:59:56.513Z,82.39
2023-03-19T10:00:55.642Z,82.19
2023-03-19T10:01:55.776Z,81.99
2023-03-19T10:02:55.647Z,81.89
2023-03-19T10:03:55.933Z,82.13
2023-03-19T10:04:55.774Z,82.19
2023-03-19T10:05:56.384Z,82.23
2023-03-19T10:06:55.674Z,82.33
2023-03-19T10:07:55.745Z,82.33
2023-03-19T10:08:56.306Z,82.29
2023-03-19T10:09:55.759Z,82.49
2023-03-19T10:10:55.666Z,82.69
2023-03-19T10:11:55.604Z,82.29
2023-03-19T10:12:55.819Z,82.09
2023-03-19T10:13:55.594Z,81.99
2023-03-19T10:14:55.894Z,82.09
2023-03-19T10:15:56.928Z,82.29
2023-03-19T10:16:55.765Z,82.09
2023-03-19T10:17:55.615Z,81.99
2023-03-19T10:18:56.071Z,81.89
2023-03-19T10:19:55.802Z,82.09
2023-03-19T10:20:56.139Z,82.09
2023-03-19T10:21:55.430Z,82.09
2023-03-19T10:22:55.449Z,81.79
2023-03-19T10:23:55.444Z,81.69
2023-03-19T10:24:55.448Z,81.99
2023-03-19T10:25:55.976Z,81.69
2023-03-19T10:26:56.287Z,82.09
2023-03-19T10:27:55.472Z,81.99
2023-03-19T10:28:56.400Z,81.95
2023-03-19T10:29:55.382Z,81.95
2023-03-19T10:30:58.037Z,81.65
2023-03-19T10:31:56.428Z,81.75
2023-03-19T10:32:58.304Z,81.65
2023-03-19T10:33:55.976Z,81.25
2023-03-19T10:34:55.883Z,81.56
2023-03-19T10:35:55.412Z,81.95
2023-03-19T10:36:55.334Z,81.15
2023-03-19T10:37:56.378Z,81.56
2023-03-19T10:38:55.347Z,81.45
2023-03-19T10:39:55.242Z,81.65
2023-03-19T10:40:55.254Z,81.15
2023-03-19T10:41:55.147Z,81.85
2023-03-19T10:42:55.158Z,81.95
2023-03-19T10:43:55.677Z,81.75
2023-03-19T10:44:55.176Z,81.65
2023-03-19T10:45:55.224Z,81.25
2023-03-19T10:46:55.195Z,81.35
2023-03-19T10:47:55.088Z,81.56
2023-03-19T10:48:55.097Z,81.05
2023-03-19T10:49:55.102Z,81.12
2023-03-19T10:50:55.106Z,81.01
2023-03-19T10:51:55.013Z,80.11
2023-03-19T10:52:55.330Z,80.41
2023-03-19T10:53:55.027Z,80.51
2023-03-19T10:54:55.349Z,80.21
2023-03-19T10:55:55.797Z,80.21
2023-03-19T10:56:55.009Z,80.21
2023-03-19T10:57:54.907Z,80.32
2023-03-19T10:58:54.918Z,80.21
2023-03-19T10:59:54.920Z,80.11
2023-03-19T11:00:55.152Z,79.72
2023-03-19T11:01:54.873Z,79.68
2023-03-19T11:02:54.972Z,79.68
2023-03-19T11:03:54.882Z,79.58
2023-03-19T11:04:54.890Z,79.28
2023-03-19T11:05:54.859Z,79.48
2023-03-19T11:06:54.869Z,79.48
2023-03-19T11:07:54.902Z,79.88
2023-03-19T11:08:54.874Z,80.08
2023-03-19T11:09:54.774Z,79.64
2023-03-19T11:10:55.230Z,79.34
2023-03-19T11:11:54.826Z,78.64
2023-03-19T11:12:54.801Z,78.54
2023-03-19T11:13:54.805Z,78.64
2023-03-19T11:14:54.710Z,78.34
2023-03-19T11:15:54.755Z,78.54
2023-03-19T11:16:54.805Z,78.44
2023-03-19T11:17:54.730Z,78.24
2023-03-19T11:18:54.841Z,78.04
2023-03-19T11:19:54.785Z,78.70
2023-03-19T11:20:54.754Z,79.10
2023-03-19T11:21:54.736Z,77.91
2023-03-19T11:22:54.689Z,77.70
2023-03-19T11:23:54.716Z,77.81
2023-03-19T11:24:54.694Z,77.81
2023-03-19T11:25:54.716Z,77.97
2023-03-19T11:26:54.733Z,77.37
2023-03-19T11:27:54.625Z,76.77
2023-03-19T11:28:55.244Z,76.67
2023-03-19T11:29:54.639Z,76.97
2023-03-19T11:30:54.636Z,77.37
2023-03-19T11:31:54.691Z,76.57
2023-03-19T11:32:54.559Z,76.73
2023-03-19T11:33:54.578Z,76.93
2023-03-19T11:34:54.579Z,75.84
2023-03-19T11:35:54.602Z,75.94
2023-03-19T11:36:54.584Z,76.64
2023-03-19T11:37:54.599Z,76.04
2023-03-19T11:38:54.510Z,75.84
2023-03-19T11:39:54.518Z,75.94
2023-03-19T11:40:54.508Z,76.34
2023-03-19T11:41:55.238Z,76.20
2023-03-19T11:42:54.520Z,76.00
2023-03-19T11:43:54.544Z,75.90
2023-03-19T11:44:54.434Z,76.40
2023-03-19T11:45:54.526Z,75.87
2023-03-19T11:46:54.444Z,75.46
2023-03-19T11:47:54.456Z,74.67
2023-03-19T11:48:54.450Z,74.17
2023-03-19T11:49:54.424Z,73.77
2023-03-19T11:50:54.469Z,73.77
2023-03-19T11:51:54.506Z,74.73
2023-03-19T11:52:54.336Z,74.33
2023-03-19T11:53:54.345Z,74.63
2023-03-19T11:54:54.356Z,73.24
2023-03-19T11:55:54.253Z,73.54
2023-03-19T11:56:54.260Z,73.64
2023-03-19T11:57:54.266Z,73.54
2023-03-19T11:58:54.399Z,72.94
2023-03-19T11:59:54.345Z,72.85
2023-03-19T12:00:54.248Z,73.34
2023-03-19T12:01:54.526Z,73.87
2023-03-19T12:02:54.230Z,73.68
2023-03-19T12:03:54.431Z,74.43
2023-03-19T12:04:54.211Z,74.24
2023-03-19T12:05:54.319Z,74.13
2023-03-19T12:06:54.228Z,73.90
2023-03-19T12:07:54.126Z,73.11
2023-03-19T12:08:54.132Z,72.47
2023-03-19T12:09:54.253Z,72.87
2023-03-19T12:10:54.201Z,72.28
2023-03-19T12:11:54.290Z,71.28
2023-03-19T12:12:54.211Z,71.91
2023-03-19T12:13:54.176Z,72.31
2023-03-19T12:14:54.081Z,72.81
2023-03-19T12:15:54.124Z,73.30
2023-03-19T12:16:54.151Z,73.50
2023-03-19T12:17:54.145Z,71.58
2023-03-19T12:18:54.116Z,72.21
2023-03-19T12:19:54.051Z,71.42
2023-03-19T12:20:54.120Z,71.51
2023-03-19T12:21:54.075Z,72.11
2023-03-19T12:22:54.019Z,72.67
2023-03-19T12:23:54.027Z,72.97
2023-03-19T12:24:53.977Z,72.17
2023-03-19T12:25:54.052Z,70.55
2023-03-19T12:26:54.004Z,70.95
2023-03-19T12:27:54.063Z,70.55
2023-03-19T12:28:53.960Z,71.25
2023-03-19T12:29:54.115Z,71.51
2023-03-19T12:30:54.031Z,71.41
2023-03-19T12:31:53.983Z,70.22
2023-03-19T12:32:54.106Z,69.13
2023-03-19T12:33:54.014Z,69.62
2023-03-19T12:34:53.961Z,69.82
2023-03-19T12:35:54.066Z,70.22
2023-03-19T12:36:53.977Z,70.12
2023-03-19T12:37:53.914Z,70.68
2023-03-19T12:38:53.887Z,69.49
2023-03-19T12:39:53.896Z,70.88
2023-03-19T12:40:53.788Z,69.95
2023-03-19T12:41:53.906Z,69.65
2023-03-19T12:42:53.799Z,68.37
2023-03-19T12:43:53.810Z,67.87
2023-03-19T12:44:53.868Z,67.97
2023-03-19T12:45:53.788Z,68.37
2023-03-19T12:46:53.831Z,68.46
2023-03-19T12:47:53.726Z,68.37
2023-03-19T12:48:53.739Z,68.86
2023-03-19T12:49:53.789Z,69.53
2023-03-19T12:50:53.767Z,69.23
2023-03-19T12:51:53.716Z,68.04